Time;durP1;ratioP1;P1;durP2;ratioP2;P2;SDS_P1;SDS_P2;PMS_P1;PMS_P2;Temp;Humidity;BMP_temperature;BMP_pressure;BME280_temperature;BME280_humidity;BME280_pressure;Samples;Min_cycle;Max_cycle;Signal;HPM_P1;HPM_P2
2022/04/30 00:02:23;;;;;;;;;;;12.10;56.10;;;;;;5050252;28;20018;-73
2022/04/30 00:04:49;;;;;;;;;;;12.10;56.10;;;;;;5049666;28;19917;-74
2022/04/30 00:07:16;;;;;;;;;;;12.20;56.10;;;;;;5049786;28;19913;-73
2022/04/30 00:09:42;;;;;;;;;;;12.20;56.00;;;;;;5049601;28;20223;-74
2022/04/30 00:12:09;;;;;;;;;;;12.20;56.00;;;;;;5049846;28;19912;-73
2022/04/30 00:14:35;;;;;;;;;;;12.20;56.00;;;;;;5049659;28;19962;-73
2022/04/30 00:17:00;;;;;;;;;;;12.20;56.10;;;;;;5049557;28;19912;-73
2022/04/30 00:19:27;;;;;;;;;;;12.20;56.10;;;;;;5049658;28;19908;-73
2022/04/30 00:21:52;;;;;;;;;;;12.20;56.10;;;;;;5081487;28;20238;-74
2022/04/30 00:24:18;;;;;;;;;;;12.20;56.20;;;;;;5049112;28;19948;-73
2022/04/30 00:26:43;;;;;;;;;;;12.20;56.10;;;;;;5049251;28;19913;-73
2022/04/30 00:29:09;;;;;;;;;;;12.20;56.10;;;;;;5049317;28;19912;-73
2022/04/30 00:31:35;;;;;;;;;;;12.20;56.10;;;;;;5048807;28;19921;-73
2022/04/30 00:34:02;;;;;;;;;;;12.20;56.10;;;;;;5047537;28;19913;-74
2022/04/30 00:36:28;;;;;;;;;;;12.20;56.10;;;;;;5049047;28;20031;-74
2022/04/30 00:38:54;;;;;;;;;;;12.20;56.10;;;;;;5049168;28;19913;-73
2022/04/30 00:41:21;;;;;;;;;;;12.20;56.10;;;;;;5048930;28;20264;-74
2022/04/30 00:43:47;;;;;;;;;;;12.20;56.10;;;;;;5048935;28;20357;-73
2022/04/30 00:46:13;;;;;;;;;;;12.20;56.10;;;;;;5049039;28;19999;-74
2022/04/30 00:48:39;;;;;;;;;;;12.20;56.10;;;;;;5049174;28;20028;-73
2022/04/30 00:51:06;;;;;;;;;;;12.20;56.20;;;;;;5049644;28;20410;-73
2022/04/30 00:53:32;;;;;;;;;;;12.20;56.20;;;;;;5048834;28;20318;-73
2022/04/30 00:55:59;;;;;;;;;;;12.20;56.20;;;;;;5049099;28;20000;-73
2022/04/30 00:58:26;;;;;;;;;;;12.20;56.20;;;;;;5048814;28;19912;-73
2022/04/30 01:00:51;;;;;;;;;;;12.20;56.20;;;;;;5047236;28;19990;-73
2022/04/30 01:03:17;;;;;;;;;;;12.10;56.20;;;;;;5049068;28;20012;-73
2022/04/30 01:05:42;;;;;;;;;;;12.10;56.20;;;;;;5047322;28;19912;-73
2022/04/30 01:08:08;;;;;;;;;;;12.10;56.30;;;;;;5049331;28;19921;-73
2022/04/30 01:10:34;;;;;;;;;;;12.10;56.30;;;;;;5048693;28;20267;-73
2022/04/30 01:12:59;;;;;;;;;;;12.10;56.80;;;;;;5048660;28;19916;-73
2022/04/30 01:15:25;;;;;;;;;;;12.10;56.30;;;;;;5048331;28;19913;-73
2022/04/30 01:17:51;;;;;;;;;;;12.10;56.20;;;;;;5048442;28;19962;-73
2022/04/30 01:20:17;;;;;;;;;;;12.10;56.40;;;;;;5048442;28;19928;-73
2022/04/30 01:23:02;;;;;;;;;;;12.10;56.40;;;;;;5048570;28;19963;-73
2022/04/30 01:25:31;;;;;;;;;;;12.20;56.60;;;;;;5048349;28;20283;-73
2022/04/30 01:27:59;;;;;;;;;;;12.20;56.40;;;;;;5048383;28;20465;-73
2022/04/30 01:30:25;;;;;;;;;;;12.20;56.40;;;;;;5080431;28;20023;-74
2022/04/30 01:38:20;;;;;;;;;;;12.30;56.30;;;;;;5048922;28;20020;-73
2022/04/30 01:40:46;;;;;;;;;;;12.20;56.30;;;;;;5048291;28;19916;-74
2022/04/30 01:43:12;;;;;;;;;;;12.20;56.80;;;;;;5063454;28;19928;-74
2022/04/30 01:45:37;;;;;;;;;;;12.30;56.40;;;;;;5048085;28;20007;-73
2022/04/30 01:48:04;;;;;;;;;;;12.30;56.40;;;;;;5048162;28;19912;-74
2022/04/30 01:50:29;;;;;;;;;;;12.30;56.30;;;;;;5047154;28;20359;-74
2022/04/30 01:52:55;;;;;;;;;;;12.30;56.30;;;;;;5048090;28;20015;-74
2022/04/30 01:55:21;;;;;;;;;;;12.30;56.50;;;;;;5046628;28;19943;-73
2022/04/30 01:57:46;;;;;;;;;;;12.30;56.50;;;;;;5048027;28;20392;-74
2022/04/30 02:00:14;;;;;;;;;;;12.30;56.70;;;;;;5047912;28;20038;-73
2022/04/30 02:02:41;;;;;;;;;;;12.30;56.60;;;;;;5048007;28;19967;-73
2022/04/30 02:05:08;;;;;;;;;;;12.30;56.70;;;;;;5047768;28;20011;-75
2022/04/30 02:07:37;;;;;;;;;;;12.30;57.00;;;;;;5048059;28;20271;-73
2022/04/30 02:10:05;;;;;;;;;;;12.30;56.80;;;;;;5047993;28;19909;-73
2022/04/30 02:12:32;;;;;;;;;;;12.30;56.90;;;;;;5047762;28;19909;-73
2022/04/30 02:14:57;;;;;;;;;;;12.30;56.80;;;;;;5051691;28;19962;-73
2022/04/30 02:17:26;;;;;;;;;;;12.30;56.80;;;;;;5052064;28;19909;-73
2022/04/30 02:22:40;;;;;;;;;;;12.00;56.90;;;;;;5052373;28;19915;-73
2022/04/30 02:25:09;;;;;;;;;;;11.80;57.10;;;;;;5051660;28;19913;-73
2022/04/30 02:27:36;;;;;;;;;;;11.70;57.30;;;;;;5051841;28;19912;-73
2022/04/30 02:30:04;;;;;;;;;;;11.60;57.40;;;;;;5050584;28;19912;-73
2022/04/30 02:32:38;;;;;;;;;;;11.70;57.50;;;;;;5051610;28;19925;-73
2022/04/30 02:35:04;;;;;;;;;;;11.70;57.30;;;;;;5051705;28;19916;-73
2022/04/30 02:37:30;;;;;;;;;;;11.60;57.30;;;;;;5051653;28;20357;-73
2022/04/30 02:39:56;;;;;;;;;;;11.60;57.40;;;;;;5051568;28;19912;-73
2022/04/30 02:42:21;;;;;;;;;;;11.60;57.40;;;;;;5050090;28;19967;-73
2022/04/30 02:44:47;;;;;;;;;;;11.70;57.40;;;;;;5051261;28;19921;-73
2022/04/30 02:47:13;;;;;;;;;;;11.70;57.40;;;;;;5083753;28;19978;-74
2022/04/30 02:49:38;;;;;;;;;;;11.70;57.40;;;;;;5050261;28;20326;-73
2022/04/30 02:52:04;;;;;;;;;;;11.80;57.40;;;;;;5051393;28;19917;-73
2022/04/30 02:54:33;;;;;;;;;;;11.80;57.30;;;;;;5051354;28;20400;-73
2022/04/30 02:56:59;;;;;;;;;;;11.80;57.20;;;;;;5082540;28;20378;-73
2022/04/30 03:02:09;;;;;;;;;;;11.80;57.20;;;;;;5051592;28;20283;-74
2022/04/30 03:04:34;;;;;;;;;;;11.80;57.10;;;;;;5051006;28;20012;-73
2022/04/30 03:07:00;;;;;;;;;;;11.80;57.20;;;;;;5051123;28;19920;-73
2022/04/30 03:09:25;;;;;;;;;;;11.80;57.20;;;;;;5051003;28;19917;-73
2022/04/30 03:11:51;;;;;;;;;;;11.90;57.40;;;;;;5051012;28;19920;-73
2022/04/30 03:14:16;;;;;;;;;;;12.00;57.60;;;;;;5050874;28;19987;-73
2022/04/30 03:22:11;;;;;;;;;;;12.10;57.50;;;;;;5051195;28;20054;-73
2022/04/30 03:24:36;;;;;;;;;;;12.00;57.30;;;;;;5050641;28;19960;-73
2022/04/30 03:27:03;;;;;;;;;;;12.00;57.30;;;;;;5050706;28;19913;-73
2022/04/30 03:29:29;;;;;;;;;;;12.00;57.30;;;;;;5050762;28;20003;-73
2022/04/30 03:31:56;;;;;;;;;;;12.00;57.50;;;;;;5050476;28;20028;-73
2022/04/30 03:34:21;;;;;;;;;;;12.00;57.50;;;;;;5082535;28;20547;-73
2022/04/30 03:36:47;;;;;;;;;;;12.10;57.50;;;;;;5050530;28;20006;-73
2022/04/30 03:39:13;;;;;;;;;;;12.10;57.50;;;;;;5050498;28;19920;-74
2022/04/30 03:41:38;;;;;;;;;;;12.10;57.50;;;;;;5050480;28;19909;-73
2022/04/30 03:44:04;;;;;;;;;;;12.10;57.40;;;;;;5050369;28;19917;-73
2022/04/30 03:46:30;;;;;;;;;;;12.10;57.30;;;;;;5050309;28;19952;-73
2022/04/30 03:48:56;;;;;;;;;;;12.10;57.30;;;;;;5050249;28;19999;-74
2022/04/30 03:51:22;;;;;;;;;;;12.10;57.30;;;;;;5050536;28;20016;-73
2022/04/30 03:53:48;;;;;;;;;;;12.00;57.40;;;;;;5050584;28;19923;-73
2022/04/30 03:56:16;;;;;;;;;;;12.00;57.50;;;;;;5050275;28;19913;-73
2022/04/30 03:58:42;;;;;;;;;;;11.90;57.60;;;;;;5048863;28;20471;-73
2022/04/30 04:01:07;;;;;;;;;;;11.90;57.60;;;;;;5049988;28;20007;-73
2022/04/30 04:03:33;;;;;;;;;;;11.90;57.50;;;;;;5049907;28;20257;-73
2022/04/30 04:05:59;;;;;;;;;;;11.90;57.50;;;;;;5050008;28;20008;-73
2022/04/30 04:08:25;;;;;;;;;;;11.80;57.50;;;;;;5049931;28;20329;-73
2022/04/30 04:10:50;;;;;;;;;;;11.80;57.50;;;;;;5082135;28;20007;-73
2022/04/30 04:18:44;;;;;;;;;;;11.80;57.70;;;;;;5050175;28;19920;-73
2022/04/30 04:21:10;;;;;;;;;;;11.80;57.70;;;;;;5081863;28;20004;-73
2022/04/30 04:26:20;;;;;;;;;;;11.80;57.70;;;;;;5049933;28;19935;-73
2022/04/30 04:28:46;;;;;;;;;;;11.80;57.70;;;;;;5049653;28;20360;-73
2022/04/30 04:31:11;;;;;;;;;;;11.80;57.70;;;;;;5049500;28;19955;-73
2022/04/30 04:33:37;;;;;;;;;;;11.80;57.70;;;;;;5048503;28;19913;-73
2022/04/30 04:36:03;;;;;;;;;;;11.90;57.70;;;;;;5048828;28;19913;-73
2022/04/30 04:38:31;;;;;;;;;;;12.00;57.70;;;;;;5049258;28;19920;-73
2022/04/30 04:40:57;;;;;;;;;;;12.00;57.60;;;;;;5049372;28;19912;-73
2022/04/30 04:43:22;;;;;;;;;;;12.00;57.50;;;;;;5049219;28;19909;-73
2022/04/30 04:45:48;;;;;;;;;;;12.00;57.60;;;;;;5049122;28;20016;-73
2022/04/30 04:48:14;;;;;;;;;;;12.00;57.50;;;;;;5047941;28;20037;-73
2022/04/30 04:50:40;;;;;;;;;;;12.00;57.70;;;;;;5049088;28;19917;-74
2022/04/30 04:53:06;;;;;;;;;;;12.00;57.90;;;;;;5049017;28;19937;-73
2022/04/30 04:55:31;;;;;;;;;;;11.90;57.90;;;;;;5048933;28;19963;-73
2022/04/30 04:57:57;;;;;;;;;;;11.90;58.00;;;;;;5081067;28;19917;-73
2022/04/30 05:00:22;;;;;;;;;;;11.90;58.20;;;;;;5048945;28;20474;-73
2022/04/30 05:02:48;;;;;;;;;;;11.90;58.30;;;;;;5049127;28;20263;-74
2022/04/30 05:05:14;;;;;;;;;;;11.90;58.50;;;;;;5048651;28;19923;-73
2022/04/30 05:07:39;;;;;;;;;;;11.80;58.40;;;;;;5048884;28;19913;-73
2022/04/30 05:10:05;;;;;;;;;;;11.80;58.50;;;;;;5048836;28;19913;-74
2022/04/30 05:12:31;;;;;;;;;;;11.80;58.50;;;;;;5048722;28;19913;-73
2022/04/30 05:14:56;;;;;;;;;;;11.80;58.70;;;;;;5048740;28;19920;-74
2022/04/30 05:17:22;;;;;;;;;;;11.80;58.90;;;;;;5048622;28;19909;-73
2022/04/30 05:19:47;;;;;;;;;;;11.80;59.00;;;;;;5048503;28;20008;-73
2022/04/30 05:22:14;;;;;;;;;;;11.80;59.20;;;;;;5048357;28;19948;-73
2022/04/30 05:24:39;;;;;;;;;;;11.80;59.40;;;;;;5048322;28;19913;-74
2022/04/30 05:27:08;;;;;;;;;;;11.80;59.50;;;;;;5048478;28;20225;-74
2022/04/30 05:29:34;;;;;;;;;;;11.80;59.80;;;;;;5048428;28;19972;-73
2022/04/30 05:31:59;;;;;;;;;;;11.80;60.30;;;;;;5046972;28;20311;-73
2022/04/30 05:34:25;;;;;;;;;;;11.80;60.50;;;;;;5048303;28;19913;-73
2022/04/30 05:36:51;;;;;;;;;;;11.80;60.60;;;;;;5048643;28;19952;-73
2022/04/30 05:39:16;;;;;;;;;;;11.80;60.90;;;;;;5048516;28;19917;-73
2022/04/30 05:41:42;;;;;;;;;;;11.80;61.10;;;;;;5048286;28;19913;-73
2022/04/30 05:44:07;;;;;;;;;;;11.80;61.20;;;;;;5048035;28;20349;-73
2022/04/30 05:46:33;;;;;;;;;;;11.80;61.40;;;;;;5080428;28;19923;-74
2022/04/30 05:48:58;;;;;;;;;;;11.80;62.00;;;;;;5047617;28;19920;-74
2022/04/30 05:51:24;;;;;;;;;;;11.90;61.70;;;;;;5047882;28;20329;-74
2022/04/30 05:53:49;;;;;;;;;;;11.90;61.80;;;;;;5048022;28;19962;-73
2022/04/30 05:56:15;;;;;;;;;;;11.90;61.80;;;;;;5047693;28;19940;-73
2022/04/30 05:58:41;;;;;;;;;;;12.00;62.20;;;;;;5046623;28;19920;-73
2022/04/30 06:01:06;;;;;;;;;;;11.90;62.20;;;;;;5047880;28;20419;-72
2022/04/30 06:03:33;;;;;;;;;;;12.00;62.30;;;;;;5079985;28;20390;-73
2022/04/30 06:05:59;;;;;;;;;;;12.00;62.30;;;;;;5046526;28;19994;-73
2022/04/30 06:08:24;;;;;;;;;;;12.00;62.60;;;;;;5047885;28;19948;-73
2022/04/30 06:10:50;;;;;;;;;;;12.00;62.50;;;;;;5047954;28;19936;-73
2022/04/30 06:13:15;;;;;;;;;;;12.00;62.90;;;;;;5047896;28;19915;-73
2022/04/30 06:15:41;;;;;;;;;;;12.00;63.40;;;;;;5047608;28;19917;-73
2022/04/30 06:18:08;;;;;;;;;;;12.00;63.30;;;;;;5047770;28;19924;-73
2022/04/30 06:20:33;;;;;;;;;;;12.00;63.60;;;;;;5047775;28;19909;-73
2022/04/30 06:22:59;;;;;;;;;;;12.00;63.80;;;;;;5047721;28;20143;-74
2022/04/30 06:25:25;;;;;;;;;;;12.00;63.90;;;;;;5047556;28;19920;-74
2022/04/30 06:27:51;;;;;;;;;;;12.00;64.00;;;;;;5047677;28;19913;-73
2022/04/30 06:30:17;;;;;;;;;;;12.10;64.40;;;;;;5047653;28;19927;-73
2022/04/30 06:32:42;;;;;;;;;;;12.10;64.60;;;;;;5026541;28;19925;-73
2022/04/30 06:35:08;;;;;;;;;;;12.10;64.80;;;;;;5027552;28;19913;-73
2022/04/30 06:37:34;;;;;;;;;;;12.10;64.90;;;;;;5026313;28;19914;-74
2022/04/30 06:39:59;;;;;;;;;;;12.10;65.00;;;;;;5043390;28;19986;-74
2022/04/30 06:42:25;;;;;;;;;;;12.20;65.10;;;;;;5027810;28;19909;-73
2022/04/30 06:44:51;;;;;;;;;;;12.20;65.10;;;;;;5027479;28;19986;-73
2022/04/30 06:47:18;;;;;;;;;;;12.20;65.20;;;;;;5027953;28;19968;-73
2022/04/30 06:49:44;;;;;;;;;;;12.20;65.50;;;;;;5027645;28;19921;-73
2022/04/30 06:52:09;;;;;;;;;;;12.30;65.90;;;;;;5027611;28;19909;-72
2022/04/30 06:57:21;;;;;;;;;;;12.20;65.90;;;;;;5027805;28;19917;-73
2022/04/30 06:59:51;;;;;;;;;;;12.30;66.10;;;;;;5028901;28;20478;-72
2022/04/30 07:02:22;;;;;;;;;;;12.30;66.30;;;;;;5031211;28;19947;-71
2022/04/30 07:04:50;;;;;;;;;;;12.30;66.20;;;;;;5031042;28;19917;-72
2022/04/30 07:07:17;;;;;;;;;;;12.30;66.60;;;;;;5031121;28;19909;-72
2022/04/30 07:09:42;;;;;;;;;;;12.40;66.90;;;;;;5031165;28;19948;-73
2022/04/30 07:12:09;;;;;;;;;;;12.40;67.20;;;;;;5031144;28;19956;-73
2022/04/30 07:14:40;;;;;;;;;;;12.40;66.90;;;;;;5031154;28;19916;-72
2022/04/30 07:17:12;;;;;;;;;;;12.50;67.00;;;;;;5031015;28;19913;-73
2022/04/30 07:19:38;;;;;;;;;;;12.50;67.00;;;;;;5031113;28;19917;-73
2022/04/30 07:22:04;;;;;;;;;;;12.60;67.30;;;;;;5030797;28;19920;-73
2022/04/30 07:24:31;;;;;;;;;;;12.60;67.10;;;;;;5030496;28;20290;-73
2022/04/30 07:26:57;;;;;;;;;;;12.60;67.30;;;;;;5030669;28;19920;-73
2022/04/30 07:29:22;;;;;;;;;;;12.60;67.60;;;;;;5030708;28;19909;-74
2022/04/30 07:31:48;;;;;;;;;;;12.60;67.50;;;;;;5042751;28;19940;-74
2022/04/30 07:34:13;;;;;;;;;;;12.60;67.50;;;;;;5050548;28;19920;-73
2022/04/30 07:36:39;;;;;;;;;;;12.70;67.80;;;;;;5049265;28;19913;-73
2022/04/30 07:39:05;;;;;;;;;;;12.70;67.70;;;;;;5050351;28;20015;-73
2022/04/30 07:41:30;;;;;;;;;;;12.70;67.70;;;;;;5049086;28;20421;-73
2022/04/30 07:43:56;;;;;;;;;;;12.70;67.60;;;;;;5050668;28;20037;-73
2022/04/30 07:46:22;;;;;;;;;;;12.70;67.60;;;;;;5050244;28;20271;-73
2022/04/30 07:48:48;;;;;;;;;;;12.70;67.50;;;;;;5050012;28;20322;-74
2022/04/30 07:51:16;;;;;;;;;;;12.80;67.50;;;;;;5050101;28;19916;-73
2022/04/30 07:53:42;;;;;;;;;;;12.80;67.70;;;;;;5049770;28;19962;-73
2022/04/30 07:56:08;;;;;;;;;;;12.80;67.70;;;;;;5049867;28;20370;-73
2022/04/30 07:58:33;;;;;;;;;;;12.80;67.80;;;;;;5049857;28;19917;-72
2022/04/30 08:00:59;;;;;;;;;;;12.90;68.20;;;;;;5049710;28;20375;-73
2022/04/30 08:03:24;;;;;;;;;;;12.90;68.10;;;;;;5048416;28;19974;-73
2022/04/30 08:05:50;;;;;;;;;;;12.90;68.10;;;;;;5082104;28;20371;-73
2022/04/30 08:08:16;;;;;;;;;;;12.90;68.10;;;;;;5049380;28;19919;-73
2022/04/30 08:10:42;;;;;;;;;;;13.00;68.00;;;;;;5047479;28;20324;-73
2022/04/30 08:13:07;;;;;;;;;;;13.00;68.10;;;;;;5049182;28;19954;-73
2022/04/30 08:15:33;;;;;;;;;;;13.10;68.20;;;;;;5048896;28;20272;-73
2022/04/30 08:17:59;;;;;;;;;;;13.20;68.30;;;;;;5048992;28;20010;-73
2022/04/30 08:20:25;;;;;;;;;;;13.20;68.20;;;;;;5047695;28;19955;-73
2022/04/30 08:22:50;;;;;;;;;;;13.20;68.50;;;;;;5049065;28;20282;-73
2022/04/30 08:25:16;;;;;;;;;;;13.30;68.50;;;;;;5049550;28;19917;-74
2022/04/30 08:27:42;;;;;;;;;;;13.30;68.60;;;;;;5049105;28;19962;-74
2022/04/30 08:30:09;;;;;;;;;;;13.40;68.50;;;;;;5048905;28;19954;-73
2022/04/30 08:32:35;;;;;;;;;;;13.40;68.50;;;;;;5049173;28;20339;-73
2022/04/30 08:35:01;;;;;;;;;;;13.50;68.80;;;;;;5048943;28;19919;-73
2022/04/30 08:37:28;;;;;;;;;;;13.50;68.60;;;;;;5049221;28;20386;-73
2022/04/30 08:39:53;;;;;;;;;;;13.60;68.60;;;;;;5048774;28;19921;-72
2022/04/30 08:42:22;;;;;;;;;;;13.70;68.60;;;;;;5080973;28;19936;-73
2022/04/30 08:44:48;;;;;;;;;;;13.80;69.10;;;;;;5049281;28;19912;-73
2022/04/30 08:47:13;;;;;;;;;;;13.90;68.60;;;;;;5048724;28;19970;-73
2022/04/30 08:49:42;;;;;;;;;;;13.90;68.60;;;;;;5080873;28;19920;-73
2022/04/30 08:52:08;;;;;;;;;;;13.90;68.90;;;;;;5048799;28;20004;-73
2022/04/30 08:54:33;;;;;;;;;;;13.90;68.60;;;;;;5048557;28;20019;-71
2022/04/30 08:56:59;;;;;;;;;;;13.90;68.70;;;;;;5048534;28;19909;-72
2022/04/30 08:59:25;;;;;;;;;;;13.90;68.70;;;;;;5048067;28;20378;-72
2022/04/30 09:01:58;;;;;;;;;;;13.90;68.60;;;;;;5048680;28;19921;-72
2022/04/30 09:04:24;;;;;;;;;;;14.00;69.00;;;;;;5048257;28;19917;-73
2022/04/30 09:06:53;;;;;;;;;;;14.10;69.00;;;;;;5048357;28;20335;-73
2022/04/30 09:09:27;;;;;;;;;;;14.20;68.90;;;;;;5047223;28;19909;-73
2022/04/30 09:11:56;;;;;;;;;;;14.30;68.80;;;;;;5048928;28;19908;-72
2022/04/30 09:14:22;;;;;;;;;;;14.40;68.60;;;;;;5048024;28;19948;-72
2022/04/30 09:16:50;;;;;;;;;;;14.60;68.50;;;;;;5049225;28;20376;-73
2022/04/30 09:19:15;;;;;;;;;;;14.80;68.60;;;;;;5081031;28;20366;-73
2022/04/30 09:21:47;;;;;;;;;;;14.90;68.40;;;;;;5048327;28;19947;-73
2022/04/30 09:24:14;;;;;;;;;;;15.00;68.50;;;;;;5048600;28;19916;-73
2022/04/30 09:26:40;;;;;;;;;;;15.00;68.40;;;;;;5049546;28;20267;-73
2022/04/30 09:29:22;;;;;;;;;;;15.10;68.40;;;;;;5049073;28;19913;-73
2022/04/30 09:31:49;;;;;;;;;;;15.10;68.60;;;;;;5048626;28;20092;-75
2022/04/30 09:39:43;;;;;;;;;;;15.20;68.40;;;;;;5062083;28;19970;-73
2022/04/30 09:42:09;;;;;;;;;;;15.30;68.40;;;;;;5061916;28;19916;-72
2022/04/30 09:44:38;;;;;;;;;;;15.40;68.30;;;;;;5061279;28;20011;-71
2022/04/30 09:47:06;;;;;;;;;;;15.40;68.30;;;;;;5056561;28;19932;-69
2022/04/30 09:55:00;;;;;;;;;;;15.60;68.30;;;;;;5064308;28;19920;-74
2022/04/30 09:57:28;;;;;;;;;;;15.70;68.20;;;;;;5057209;28;20351;-74
2022/04/30 09:59:55;;;;;;;;;;;15.70;68.30;;;;;;5053586;28;19936;-74
2022/04/30 10:02:21;;;;;;;;;;;15.70;68.30;;;;;;5055577;28;20008;-73
2022/04/30 10:04:47;;;;;;;;;;;15.70;68.00;;;;;;5048381;28;19979;-74
2022/04/30 10:07:15;;;;;;;;;;;15.70;67.90;;;;;;5048176;28;19912;-74
2022/04/30 10:09:42;;;;;;;;;;;15.70;68.20;;;;;;5048641;28;19959;-76
2022/04/30 10:12:12;;;;;;;;;;;15.60;68.20;;;;;;5048944;28;19909;-75
2022/04/30 10:14:43;;;;;;;;;;;15.50;68.60;;;;;;5046699;28;20320;-73
2022/04/30 10:17:13;;;;;;;;;;;15.40;68.60;;;;;;5048460;28;19913;-74
2022/04/30 10:19:39;;;;;;;;;;;15.50;68.80;;;;;;5048419;28;19909;-75
2022/04/30 10:22:09;;;;;;;;;;;15.40;68.70;;;;;;5079928;28;20466;-74
2022/04/30 10:24:40;;;;;;;;;;;15.40;68.80;;;;;;5079987;28;20372;-73
2022/04/30 10:27:05;;;;;;;;;;;15.40;68.90;;;;;;5047230;28;19932;-72
2022/04/30 10:29:31;;;;;;;;;;;15.40;68.80;;;;;;5048581;28;20509;-73
2022/04/30 10:31:56;;;;;;;;;;;15.50;69.00;;;;;;5047111;28;19929;-75
2022/04/30 10:34:29;;;;;;;;;;;15.50;69.10;;;;;;5049884;28;19920;-74
2022/04/30 10:36:55;;;;;;;;;;;15.60;69.00;;;;;;5052561;28;19909;-76
2022/04/30 10:39:21;;;;;;;;;;;15.70;69.20;;;;;;5051707;28;20287;-75
2022/04/30 10:41:49;;;;;;;;;;;15.80;69.40;;;;;;5052400;28;20008;-74
2022/04/30 10:44:15;;;;;;;;;;;15.90;69.30;;;;;;5056527;28;19917;-77
2022/04/30 10:46:50;;;;;;;;;;;16.10;69.50;;;;;;5052108;28;19915;-76
2022/04/30 10:49:16;;;;;;;;;;;16.30;69.50;;;;;;5052581;28;19909;-76
2022/04/30 10:51:42;;;;;;;;;;;16.60;69.20;;;;;;5053411;28;19917;-75
2022/04/30 10:54:09;;;;;;;;;;;16.70;69.10;;;;;;5071768;28;19966;-74
2022/04/30 10:56:36;;;;;;;;;;;16.80;69.20;;;;;;5071567;28;19908;-74
2022/04/30 10:59:01;;;;;;;;;;;16.90;69.00;;;;;;5061592;28;19967;-73
2022/04/30 11:01:27;;;;;;;;;;;16.90;68.90;;;;;;5065428;28;19912;-75
2022/04/30 11:03:53;;;;;;;;;;;16.80;68.80;;;;;;5063634;28;20007;-76
2022/04/30 11:06:19;;;;;;;;;;;16.70;68.80;;;;;;5056398;28;19920;-77
2022/04/30 11:08:55;;;;;;;;;;;16.70;69.20;;;;;;5060312;28;19909;-73
2022/04/30 11:11:20;;;;;;;;;;;16.80;69.30;;;;;;5054107;28;19909;-72
2022/04/30 11:13:53;;;;;;;;;;;16.90;69.40;;;;;;5063025;28;20007;-73
2022/04/30 11:16:19;;;;;;;;;;;16.90;69.20;;;;;;5061188;28;19916;-73
2022/04/30 11:18:44;;;;;;;;;;;16.90;69.00;;;;;;5062295;28;19917;-73
2022/04/30 11:21:10;;;;;;;;;;;16.80;69.10;;;;;;5059494;28;19913;-73
2022/04/30 11:23:36;;;;;;;;;;;16.60;69.20;;;;;;5053170;28;19935;-75
2022/04/30 11:26:01;;;;;;;;;;;16.50;69.20;;;;;;5062493;28;20366;-74
2022/04/30 11:28:28;;;;;;;;;;;16.30;69.30;;;;;;5070516;28;19909;-72
2022/04/30 11:30:57;;;;;;;;;;;16.20;69.40;;;;;;5070400;28;19928;-72
2022/04/30 11:33:31;;;;;;;;;;;16.00;69.50;;;;;;5070954;28;19916;-74
2022/04/30 11:35:56;;;;;;;;;;;15.90;69.70;;;;;;5070441;28;20296;-74
2022/04/30 11:38:22;;;;;;;;;;;15.70;69.90;;;;;;5103325;28;19917;-74
2022/04/30 11:40:47;;;;;;;;;;;15.60;70.00;;;;;;5071334;28;19913;-74
2022/04/30 11:43:13;;;;;;;;;;;15.70;70.20;;;;;;5087040;28;19989;-74
2022/04/30 11:45:38;;;;;;;;;;;15.80;70.20;;;;;;5069755;28;19916;-74
2022/04/30 11:48:04;;;;;;;;;;;15.80;70.30;;;;;;5070998;28;19912;-75
2022/04/30 11:50:30;;;;;;;;;;;15.70;70.30;;;;;;5103508;28;19912;-73
2022/04/30 11:52:56;;;;;;;;;;;15.60;70.50;;;;;;5069290;28;19958;-74
2022/04/30 11:55:21;;;;;;;;;;;15.50;70.50;;;;;;5069449;28;19916;-74
2022/04/30 11:57:48;;;;;;;;;;;15.40;70.70;;;;;;5068091;28;19915;-72
2022/04/30 12:00:22;;;;;;;;;;;15.40;70.80;;;;;;5079585;28;19979;-73
2022/04/30 12:02:49;;;;;;;;;;;15.40;71.00;;;;;;5055488;28;19912;-74
2022/04/30 12:05:15;;;;;;;;;;;15.40;71.00;;;;;;5049886;28;20016;-73
2022/04/30 12:07:42;;;;;;;;;;;15.40;71.00;;;;;;5048945;28;20237;-73
2022/04/30 12:10:14;;;;;;;;;;;15.40;70.90;;;;;;5050171;28;19996;-73
2022/04/30 12:12:39;;;;;;;;;;;15.40;70.90;;;;;;5052702;28;19913;-74
2022/04/30 12:15:18;;;;;;;;;;;15.50;70.80;;;;;;5060981;28;19923;-73
2022/04/30 12:17:44;;;;;;;;;;;15.50;70.80;;;;;;5065322;28;19912;-73
2022/04/30 12:25:48;;;;;;;;;;;15.60;71.10;;;;;;5062674;28;19951;-73
2022/04/30 12:28:13;;;;;;;;;;;15.70;71.00;;;;;;5066426;28;19908;-73
2022/04/30 12:30:49;;;;;;;;;;;15.90;71.10;;;;;;5069381;28;19923;-73
2022/04/30 12:33:14;;;;;;;;;;;16.10;71.30;;;;;;5067095;28;20039;-73
2022/04/30 12:35:40;;;;;;;;;;;16.40;71.20;;;;;;5067445;28;19986;-72
2022/04/30 12:38:07;;;;;;;;;;;16.90;71.40;;;;;;5069628;28;19970;-72
2022/04/30 12:40:36;;;;;;;;;;;17.20;71.00;;;;;;5069258;28;20381;-73
2022/04/30 12:43:03;;;;;;;;;;;17.50;70.50;;;;;;5066842;28;19908;-72
2022/04/30 12:45:29;;;;;;;;;;;17.50;70.00;;;;;;5068857;28;20332;-73
2022/04/30 12:47:55;;;;;;;;;;;17.50;70.00;;;;;;5068676;28;20343;-72
2022/04/30 12:50:21;;;;;;;;;;;17.40;69.90;;;;;;5069000;28;19908;-72
2022/04/30 12:52:46;;;;;;;;;;;17.40;70.20;;;;;;5068301;28;20331;-72
2022/04/30 12:55:14;;;;;;;;;;;17.40;70.20;;;;;;5068984;28;20034;-73
2022/04/30 12:57:39;;;;;;;;;;;17.40;70.20;;;;;;5068794;28;19908;-73
2022/04/30 13:00:06;;;;;;;;;;;17.40;70.20;;;;;;5069144;28;19919;-73
2022/04/30 13:02:32;;;;;;;;;;;17.40;70.20;;;;;;5068203;28;19908;-73
2022/04/30 13:04:58;;;;;;;;;;;17.30;70.10;;;;;;5068555;28;19916;-72
2022/04/30 13:07:24;;;;;;;;;;;17.30;70.30;;;;;;5068543;28;19919;-72
2022/04/30 13:15:18;;;;;;;;;;;17.40;70.60;;;;;;5068876;28;20350;-74
2022/04/30 13:17:44;;;;;;;;;;;17.40;70.60;;;;;;5068006;28;20006;-72
2022/04/30 13:20:11;;;;;;;;;;;17.30;70.40;;;;;;5068343;28;19953;-72
2022/04/30 13:22:37;;;;;;;;;;;17.30;70.70;;;;;;5067853;28;19948;-73
2022/04/30 13:25:04;;;;;;;;;;;17.20;70.60;;;;;;5068716;28;20355;-72
2022/04/30 13:27:31;;;;;;;;;;;17.30;70.90;;;;;;5068366;28;20262;-73
2022/04/30 13:29:56;;;;;;;;;;;17.30;70.70;;;;;;5068579;28;20505;-73
2022/04/30 13:32:22;;;;;;;;;;;17.20;70.40;;;;;;5068487;28;20011;-73
2022/04/30 13:34:47;;;;;;;;;;;17.10;70.40;;;;;;5066723;28;19952;-73
2022/04/30 13:37:15;;;;;;;;;;;16.90;70.50;;;;;;5067484;28;20512;-73
2022/04/30 13:39:41;;;;;;;;;;;16.80;70.70;;;;;;5066239;28;19916;-71
2022/04/30 13:42:06;;;;;;;;;;;16.70;70.80;;;;;;5066261;28;19916;-73
2022/04/30 13:44:32;;;;;;;;;;;16.50;71.00;;;;;;5068036;28;19926;-73
2022/04/30 13:46:58;;;;;;;;;;;16.40;71.70;;;;;;5067836;28;19921;-73
2022/04/30 13:49:23;;;;;;;;;;;16.30;71.50;;;;;;5068138;28;19912;-74
2022/04/30 13:51:49;;;;;;;;;;;16.30;71.60;;;;;;5067933;28;20499;-73
2022/04/30 13:54:14;;;;;;;;;;;16.20;71.60;;;;;;5067719;28;19913;-73
2022/04/30 13:56:40;;;;;;;;;;;16.10;71.70;;;;;;5067427;28;19972;-73
2022/04/30 13:59:06;;;;;;;;;;;16.10;72.10;;;;;;5068273;28;19917;-72
2022/04/30 14:01:33;;;;;;;;;;;16.00;72.10;;;;;;5068652;28;20375;-73
2022/04/30 14:03:59;;;;;;;;;;;15.90;72.20;;;;;;5068357;28;19920;-72
2022/04/30 14:06:27;;;;;;;;;;;15.80;72.50;;;;;;5067999;28;19912;-72
2022/04/30 14:08:52;;;;;;;;;;;15.80;72.50;;;;;;5067375;28;20443;-72
2022/04/30 14:11:18;;;;;;;;;;;15.70;72.40;;;;;;5068684;28;20003;-73
2022/04/30 14:16:28;;;;;;;;;;;15.90;72.70;;;;;;5056182;28;19963;-73
2022/04/30 14:18:54;;;;;;;;;;;15.90;72.70;;;;;;5048102;28;20328;-70
2022/04/30 14:21:19;;;;;;;;;;;15.80;72.70;;;;;;5052933;28;19991;-72
2022/04/30 14:23:47;;;;;;;;;;;15.60;72.70;;;;;;5059804;28;19943;-72
2022/04/30 14:26:12;;;;;;;;;;;15.60;72.90;;;;;;5055481;28;20358;-72
2022/04/30 14:28:39;;;;;;;;;;;15.50;73.20;;;;;;5062432;28;20011;-71
2022/04/30 14:31:05;;;;;;;;;;;15.40;73.70;;;;;;5059812;28;20017;-72
2022/04/30 14:33:30;;;;;;;;;;;15.40;73.20;;;;;;5059250;28;20045;-72
2022/04/30 14:35:57;;;;;;;;;;;15.40;73.20;;;;;;5070811;28;19928;-73
2022/04/30 14:38:22;;;;;;;;;;;15.40;73.30;;;;;;5047566;28;19913;-72
2022/04/30 14:40:48;;;;;;;;;;;15.30;73.50;;;;;;5056099;28;20288;-72
2022/04/30 14:43:14;;;;;;;;;;;15.30;73.60;;;;;;5064683;28;19919;-73
2022/04/30 14:45:40;;;;;;;;;;;15.30;73.70;;;;;;5067773;28;19924;-72
2022/04/30 14:48:06;;;;;;;;;;;15.40;73.80;;;;;;5067615;28;19946;-72
2022/04/30 14:50:32;;;;;;;;;;;15.60;74.10;;;;;;5067369;28;19986;-71
2022/04/30 14:52:58;;;;;;;;;;;15.60;74.00;;;;;;5066789;28;19958;-72
2022/04/30 14:55:25;;;;;;;;;;;15.70;74.20;;;;;;5067243;28;19966;-72
2022/04/30 14:57:50;;;;;;;;;;;15.90;74.30;;;;;;5067380;28;19908;-72
2022/04/30 15:00:17;;;;;;;;;;;16.00;74.20;;;;;;5066264;28;19921;-72
2022/04/30 15:02:43;;;;;;;;;;;16.00;74.00;;;;;;5067757;28;19912;-72
2022/04/30 15:05:09;;;;;;;;;;;16.00;73.90;;;;;;5067327;28;19924;-73